Time;durP1;ratioP1;P1;durP2;ratioP2;P2;SDS_P1;SDS_P2;PMS_P1;PMS_P2;Temp;Humidity;BMP_temperature;BMP_pressure;BME280_temperature;BME280_humidity;BME280_pressure;Samples;Min_cycle;Max_cycle;Signal;HPM_P1;HPM_P2
2022/08/23 00:01:48;;;;;;;5.07;2.55;;;;;;;23.95;46.92;101485.44;4902995;29;20131;-78
2022/08/23 00:04:19;;;;;;;5.78;2.78;;;;;;;23.94;46.68;101479.31;4920611;29;20080;-78
2022/08/23 00:06:46;;;;;;;5.78;2.40;;;;;;;23.93;46.84;101482.88;4920759;29;20036;-78
2022/08/23 00:09:13;;;;;;;5.18;2.65;;;;;;;23.93;46.74;101487.25;4905144;29;20562;-78
2022/08/23 00:11:50;;;;;;;5.75;2.30;;;;;;;23.92;46.64;101477.66;4904788;29;20040;-78
2022/08/23 00:14:26;;;;;;;4.47;2.55;;;;;;;23.92;46.95;101478.50;4923662;29;20048;-78
2022/08/23 00:16:51;;;;;;;4.53;2.42;;;;;;;23.93;46.66;101476.72;4921110;29;21267;-78
2022/08/23 00:19:18;;;;;;;6.47;2.45;;;;;;;23.92;46.56;101464.50;4890064;29;20056;-78
2022/08/23 00:21:45;;;;;;;3.95;2.40;;;;;;;23.91;46.94;101470.66;4903331;29;20036;-78
2022/08/23 00:24:12;;;;;;;5.20;2.30;;;;;;;23.91;46.54;101468.91;4905322;29;20047;-78
2022/08/23 00:26:59;;;;;;;6.65;2.70;;;;;;;23.90;46.97;101464.53;4886881;29;20146;-78
2022/08/23 00:31:51;;;;;;;4.13;2.42;;;;;;;23.90;46.90;101469.78;4919296;29;20045;-77
2022/08/23 00:34:17;;;;;;;9.38;2.75;;;;;;;23.90;46.64;101468.94;4888755;29;20059;-78
2022/08/23 00:36:46;;;;;;;6.78;2.50;;;;;;;23.91;46.55;101465.38;4887013;29;20044;-78
2022/08/23 00:39:12;;;;;;;7.20;2.50;;;;;;;23.90;46.70;101469.78;4922191;29;20055;-78
2022/08/23 00:41:38;;;;;;;7.97;2.47;;;;;;;23.91;46.71;101465.38;4902888;29;20052;-78
2022/08/23 00:49:39;;;;;;;5.85;2.40;;;;;;;23.89;46.95;101465.47;4919784;29;20055;-78
2022/08/23 00:54:52;;;;;;;4.53;2.30;;;;;;;23.91;46.96;101466.28;4919343;29;20052;-77
2022/08/23 00:57:19;;;;;;;5.28;2.30;;;;;;;23.90;47.00;101461.06;4904052;29;20486;-78
2022/08/23 00:59:45;;;;;;;5.22;2.10;;;;;;;23.90;46.96;101469.78;4886272;29;20037;-78
2022/08/23 01:02:11;;;;;;;5.00;2.40;;;;;;;23.90;47.24;101466.31;4889190;29;20055;-78
2022/08/23 01:04:43;;;;;;;5.82;2.40;;;;;;;23.91;46.95;101458.41;4900482;29;20099;-78
2022/08/23 01:09:56;;;;;;;6.28;2.58;;;;;;;23.90;46.96;101461.06;4911189;29;20139;-78
2022/08/23 01:14:59;;;;;;;5.43;2.70;;;;;;;23.90;46.99;101464.53;4920207;29;20072;-78
2022/08/23 01:20:00;;;;;;;5.18;2.33;;;;;;;23.90;47.00;101463.69;4917928;29;20048;-78
2022/08/23 01:24:52;;;;;;;5.05;2.13;;;;;;;23.90;47.10;101474.19;4921369;29;20112;-78
2022/08/23 01:27:18;;;;;;;5.25;2.30;;;;;;;23.90;46.95;101474.19;4904374;29;20044;-78
2022/08/23 01:29:43;;;;;;;6.85;2.50;;;;;;;23.90;47.12;101471.56;4872699;29;20056;-78
2022/08/23 01:32:11;;;;;;;4.65;2.40;;;;;;;23.90;47.05;101464.53;4889670;29;20376;-78
2022/08/23 01:34:37;;;;;;;6.72;2.50;;;;;;;23.90;46.76;101467.16;4918285;29;20123;-78
2022/08/23 01:37:06;;;;;;;4.20;2.10;;;;;;;23.90;47.16;101467.16;4872163;29;20135;-78
2022/08/23 01:39:33;;;;;;;4.45;2.30;;;;;;;23.90;46.97;101469.78;4900321;29;20043;-78
2022/08/23 01:41:58;;;;;;;5.30;2.22;;;;;;;23.89;46.90;101478.59;4902872;29;20487;-78
2022/08/23 01:44:25;;;;;;;5.82;2.60;;;;;;;23.90;46.93;101472.41;4887691;29;20048;-78
2022/08/23 01:46:51;;;;;;;5.53;2.70;;;;;;;23.89;46.96;101475.97;4883919;29;20945;-78
2022/08/23 01:49:17;;;;;;;5.97;2.30;;;;;;;23.90;47.07;101476.81;4885687;29;20127;-78
2022/08/23 01:51:42;;;;;;;6.95;2.75;;;;;;;23.90;47.22;101474.19;4887222;29;20048;-78
2022/08/23 01:54:08;;;;;;;6.22;2.35;;;;;;;23.89;46.97;101469.81;4915106;29;20055;-78
2022/08/23 01:56:34;;;;;;;7.85;2.65;;;;;;;23.89;46.99;101481.22;4889100;29;20044;-78
2022/08/23 01:59:00;;;;;;;5.43;2.28;;;;;;;23.91;47.13;101473.28;4892858;29;20036;-78
2022/08/23 02:03:51;;;;;;;5.43;2.33;;;;;;;23.89;46.76;101480.34;4889378;29;20500;-77
2022/08/23 02:06:17;;;;;;;8.00;2.38;;;;;;;23.88;47.12;101473.38;4880918;29;20052;-78
2022/08/23 02:09:01;;;;;;;3.92;2.22;;;;;;;23.88;46.94;101476.84;4904695;29;20048;-78
2022/08/23 02:11:40;;;;;;;4.22;2.30;;;;;;;23.88;47.12;101474.22;4891462;29;20052;-78
2022/08/23 02:14:12;;;;;;;5.28;2.50;;;;;;;23.87;47.39;101472.50;4903812;29;20060;-78
2022/08/23 02:16:42;;;;;;;5.43;2.70;;;;;;;23.87;46.94;101475.16;4901329;29;20052;-78
2022/08/23 02:19:11;;;;;;;4.90;2.22;;;;;;;23.87;47.23;101471.66;4914489;29;20067;-82
2022/08/23 02:21:38;;;;;;;7.80;2.45;;;;;;;23.88;47.12;101468.13;4918692;29;20056;-78
2022/08/23 02:24:06;;;;;;;6.20;3.00;;;;;;;23.87;47.04;101466.41;4910913;29;20048;-82
2022/08/23 02:26:33;;;;;;;4.18;2.15;;;;;;;23.87;47.30;101472.50;4917323;29;20032;-81
2022/08/23 02:28:58;;;;;;;5.43;2.58;;;;;;;23.88;47.21;101481.25;4890781;29;20059;-82
2022/08/23 02:31:25;;;;;;;5.40;2.58;;;;;;;23.86;47.01;101470.78;4885337;29;20120;-82
2022/08/23 02:33:50;;;;;;;5.15;2.60;;;;;;;23.85;47.17;101479.56;4900932;29;20862;-81
2022/08/23 02:36:16;;;;;;;5.28;2.40;;;;;;;23.85;47.55;101476.94;4917834;29;20036;-82
2022/08/23 02:38:41;;;;;;;5.00;2.45;;;;;;;23.86;47.13;101483.06;4916467;29;20044;-82
2022/08/23 02:41:08;;;;;;;7.00;2.63;;;;;;;23.85;47.56;101484.84;4885121;29;20075;-83
2022/08/23 02:43:36;;;;;;;6.00;2.50;;;;;;;23.86;47.46;101483.06;4913645;29;20036;-81
2022/08/23 02:46:05;;;;;;;5.72;2.67;;;;;;;23.84;47.30;101485.72;4915645;29;20055;-82
2022/08/23 02:48:35;;;;;;;6.40;2.90;;;;;;;23.85;47.53;101483.97;4900112;29;20036;-81
2022/08/23 02:51:02;;;;;;;4.03;2.30;;;;;;;23.85;47.38;101484.84;4916106;29;20055;-81
2022/08/23 02:53:31;;;;;;;4.68;2.40;;;;;;;23.87;47.48;101487.44;4917868;29;20040;-81
2022/08/23 02:55:57;;;;;;;3.80;2.30;;;;;;;23.85;47.10;101489.22;4932583;29;20040;-78
2022/08/23 03:00:52;;;;;;;3.95;2.30;;;;;;;23.85;47.57;101486.59;4856010;29;1097708;-78
2022/08/23 03:03:18;;;;;;;5.00;2.50;;;;;;;23.84;47.45;101488.34;4902615;29;20040;-78
2022/08/23 03:05:44;;;;;;;6.85;2.72;;;;;;;23.84;47.08;101485.72;4900242;29;20056;-78
2022/08/23 03:08:10;;;;;;;5.90;2.75;;;;;;;23.84;47.18;101484.88;4902307;29;20133;-78
2022/08/23 03:10:37;;;;;;;4.22;2.55;;;;;;;23.85;47.46;101487.47;4884545;29;20060;-78
2022/08/23 03:13:03;;;;;;;5.40;2.50;;;;;;;23.87;47.01;101485.66;4886660;29;20052;-78
2022/08/23 03:15:29;;;;;;;5.93;2.60;;;;;;;23.87;47.15;101482.19;4894884;29;20075;-82
2022/08/23 03:17:54;;;;;;;4.93;2.70;;;;;;;23.86;47.07;101480.44;4900396;29;20076;-81
2022/08/23 03:20:20;;;;;;;5.15;2.60;;;;;;;23.84;47.09;101483.09;4932049;29;20048;-82
2022/08/23 03:22:45;;;;;;;4.90;2.63;;;;;;;23.84;47.14;101480.47;4912962;29;21126;-82
2022/08/23 03:25:11;;;;;;;6.50;2.60;;;;;;;23.85;47.22;101481.34;4899993;29;20079;-82
2022/08/23 03:27:37;;;;;;;5.97;2.75;;;;;;;23.85;47.18;101481.34;4897039;29;20052;-82
2022/08/23 03:30:04;;;;;;;7.30;2.97;;;;;;;23.84;47.22;101483.09;4902985;29;20048;-82
2022/08/23 03:32:29;;;;;;;6.18;2.67;;;;;;;23.84;47.12;101480.47;4918464;29;20055;-81
2022/08/23 03:34:55;;;;;;;4.78;2.47;;;;;;;23.86;47.02;101478.66;4918702;29;20067;-82
2022/08/23 03:37:21;;;;;;;8.02;2.78;;;;;;;23.86;47.36;101480.44;4936287;29;20055;-83
2022/08/23 03:39:46;;;;;;;7.95;2.80;;;;;;;23.85;47.36;101479.56;4935673;29;20127;-82
2022/08/23 03:42:12;;;;;;;5.65;2.70;;;;;;;23.84;47.16;101490.13;4905728;29;20048;-82
2022/08/23 03:44:37;;;;;;;6.03;2.63;;;;;;;23.85;47.60;101482.19;4908080;29;20060;-78
2022/08/23 03:47:05;;;;;;;5.65;2.67;;;;;;;23.85;47.48;101484.84;4872618;29;20106;-78
2022/08/23 03:49:30;;;;;;;6.60;2.60;;;;;;;23.83;47.55;101486.63;4887124;29;20099;-78
2022/08/23 03:51:57;;;;;;;5.63;2.67;;;;;;;23.84;47.31;101480.47;4887618;29;20403;-78
2022/08/23 03:54:22;;;;;;;7.20;3.10;;;;;;;23.85;47.44;101486.59;4888618;29;20059;-78
2022/08/23 03:57:01;;;;;;;7.22;2.97;;;;;;;23.82;47.79;101490.16;4921969;29;20063;-77
2022/08/23 03:59:28;;;;;;;11.57;3.00;;;;;;;23.82;47.90;101482.25;4907743;29;20060;-81
2022/08/23 04:01:54;;;;;;;4.53;2.60;;;;;;;23.84;47.88;101484.88;4917543;29;20060;-82
2022/08/23 04:04:19;;;;;;;6.22;2.80;;;;;;;23.84;47.50;101484.88;4933789;29;20044;-82
2022/08/23 04:06:45;;;;;;;5.57;2.42;;;;;;;23.83;47.43;101481.38;4903983;29;20044;-82
2022/08/23 04:09:12;;;;;;;4.68;2.58;;;;;;;23.83;47.65;101483.16;4921498;29;20036;-82
2022/08/23 04:11:38;;;;;;;6.35;2.50;;;;;;;23.83;47.55;101483.16;4887210;29;20033;-81
2022/08/23 04:14:05;;;;;;;4.93;2.60;;;;;;;23.83;47.61;101481.38;4885429;29;20056;-81
2022/08/23 04:16:36;;;;;;;4.88;2.72;;;;;;;23.83;47.58;101484.00;4892721;29;20111;-81
2022/08/23 04:19:15;;;;;;;4.72;2.28;;;;;;;23.83;47.62;101485.78;4920638;29;20100;-82
2022/08/23 04:21:48;;;;;;;4.65;2.60;;;;;;;23.81;47.71;101486.66;4902843;29;20052;-82
2022/08/23 04:24:15;;;;;;;5.55;2.92;;;;;;;23.82;47.62;101482.25;4918278;29;20052;-81
2022/08/23 04:26:41;;;;;;;8.43;2.90;;;;;;;23.80;47.80;101484.94;4916569;29;20059;-81
2022/08/23 04:29:07;;;;;;;5.22;2.90;;;;;;;23.81;47.68;101485.81;4921607;29;20048;-81
2022/08/23 04:31:33;;;;;;;7.82;2.95;;;;;;;23.81;47.51;101493.69;4931979;29;20056;-82
2022/08/23 04:33:59;;;;;;;5.88;2.85;;;;;;;23.80;47.83;101487.59;4906511;29;20143;-81
2022/08/23 04:36:24;;;;;;;4.97;2.85;;;;;;;23.79;47.46;101488.47;4915011;29;20079;-81
2022/08/23 04:38:50;;;;;;;9.25;3.03;;;;;;;23.80;47.52;101497.22;4901488;29;20048;-82
2022/08/23 04:43:51;;;;;;;7.88;2.88;;;;;;;23.81;47.34;101491.91;4910337;29;21855;-81
2022/08/23 04:46:16;;;;;;;6.05;2.90;;;;;;;23.80;47.59;101490.22;4908491;29;20052;-77
2022/08/23 04:48:44;;;;;;;7.57;3.03;;;;;;;23.83;47.38;101491.03;4904004;29;20051;-76
2022/08/23 04:51:13;;;;;;;4.35;3.00;;;;;;;23.83;47.59;101491.03;4927836;29;20051;-83
2022/08/23 04:53:38;;;;;;;6.63;3.40;;;;;;;23.86;47.37;101499.69;4933420;29;20055;-79
2022/08/23 04:56:05;;;;;;;6.78;2.72;;;;;;;23.87;47.28;101501.44;4902758;29;20047;-77
2022/08/23 04:58:32;;;;;;;6.20;2.83;;;;;;;23.86;47.84;101502.31;4893521;29;20151;-78
2022/08/23 05:00:59;;;;;;;7.40;3.42;;;;;;;23.81;48.15;101504.22;4906357;29;20048;-78
2022/08/23 05:05:52;;;;;;;7.30;3.90;;;;;;;23.68;48.20;101508.00;4907961;29;20056;-78
2022/08/23 05:08:20;;;;;;;9.60;4.15;;;;;;;23.64;48.14;101508.97;4887224;29;20546;-79
2022/08/23 05:10:48;;;;;;;9.85;4.57;;;;;;;23.61;48.47;101516.03;4922638;29;20036;-81
2022/08/23 05:15:39;;;;;;;8.93;4.53;;;;;;;23.56;48.48;101507.41;5112303;23;20032;-83
2022/08/23 05:20:40;;;;;;;13.18;4.90;;;;;;;23.52;48.62;101520.66;5603414;23;20156;-80
2022/08/23 05:23:06;;;;;;;17.52;5.55;;;;;;;23.54;48.88;101529.34;4914902;29;20092;-83
2022/08/23 05:25:50;;;;;;;14.02;5.18;;;;;;;23.54;49.01;101524.09;4935279;29;20071;-83
2022/08/23 05:28:23;;;;;;;13.95;5.38;;;;;;;23.56;49.20;101527.53;4935454;29;20088;-82
2022/08/23 05:30:57;;;;;;;12.95;4.63;;;;;;;23.57;48.99;101518.78;4985623;23;20055;-84
2022/08/23 05:33:23;;;;;;;14.82;5.45;;;;;;;23.56;48.92;101514.41;4919639;29;20028;-86
2022/08/23 05:35:49;;;;;;;17.08;5.00;;;;;;;23.53;49.17;101522.38;4934484;29;20054;-84
2022/08/23 05:38:14;;;;;;;11.45;5.00;;;;;;;23.51;49.10;101518.91;4924818;29;20044;-77
2022/08/23 05:40:40;;;;;;;14.63;4.90;;;;;;;23.49;49.09;101516.31;4889915;29;20056;-77
2022/08/23 05:43:05;;;;;;;13.18;5.65;;;;;;;23.48;49.33;101525.13;4876587;29;20056;-77
2022/08/23 05:45:34;;;;;;;9.27;5.20;;;;;;;23.49;49.52;101529.44;4888552;29;20048;-77
2022/08/23 05:47:59;;;;;;;14.38;5.47;;;;;;;23.51;49.65;101526.81;4904205;29;20060;-77
2022/08/23 05:50:25;;;;;;;12.88;5.28;;;;;;;23.49;49.67;101537.34;4903400;29;20059;-77
2022/08/23 05:52:50;;;;;;;15.82;5.40;;;;;;;23.50;49.47;101536.44;4873456;29;20154;-77
2022/08/23 05:55:16;;;;;;;10.93;5.60;;;;;;;23.50;49.21;101540.84;4892069;29;20044;-77
2022/08/23 05:57:41;;;;;;;11.85;5.53;;;;;;;23.48;49.40;101534.75;4889631;29;20071;-78
2022/08/23 06:00:12;;;;;;;18.60;6.40;;;;;;;23.48;49.82;101532.13;4875714;29;20076;-77
2022/08/23 06:02:37;;;;;;;17.27;6.28;;;;;;;23.46;49.64;101537.41;4904826;29;20525;-77
2022/08/23 06:05:04;;;;;;;17.52;5.90;;;;;;;23.49;49.80;101542.59;4876413;29;20052;-77
2022/08/23 06:07:30;;;;;;;16.98;6.15;;;;;;;23.50;49.87;101540.84;4890154;29;20067;-77
2022/08/23 06:09:55;;;;;;;14.55;5.95;;;;;;;23.51;50.07;101540.78;4891329;29;20059;-78
2022/08/23 06:12:20;;;;;;;14.73;5.30;;;;;;;23.50;49.74;101539.06;4876558;29;20151;-78
2022/08/23 06:14:49;;;;;;;14.50;5.38;;;;;;;23.53;49.80;101538.13;4887364;29;20116;-78
2022/08/23 06:17:14;;;;;;;14.65;5.28;;;;;;;23.68;49.00;101536.91;4873618;29;20071;-78
2022/08/23 06:19:39;;;;;;;15.20;5.15;;;;;;;24.04;48.15;101537.81;4873987;29;20048;-78
2022/08/23 06:22:05;;;;;;;12.82;5.40;;;;;;;24.29;47.03;101540.66;4889825;29;20052;-77
2022/08/23 06:24:30;;;;;;;17.25;5.22;;;;;;;24.32;47.00;101548.44;4889100;29;20049;-78
2022/08/23 06:26:56;;;;;;;12.55;4.78;;;;;;;24.31;46.73;101549.34;4889617;29;20056;-78
2022/08/23 06:29:24;;;;;;;10.82;4.53;;;;;;;24.34;46.58;101549.25;4889800;29;20052;-78
2022/08/23 06:31:51;;;;;;;10.38;4.90;;;;;;;24.24;47.19;101553.06;4882886;29;20056;-77
2022/08/23 06:36:56;;;;;;;8.93;4.45;;;;;;;24.43;46.43;101551.66;4898876;29;21232;-78
2022/08/23 06:39:24;;;;;;;9.60;4.45;;;;;;;24.48;45.86;101555.94;4900660;29;20147;-78
2022/08/23 06:41:51;;;;;;;8.27;4.45;;;;;;;24.54;46.03;101558.41;4884031;29;21880;-77
2022/08/23 06:44:18;;;;;;;8.30;4.07;;;;;;;24.56;45.64;101553.97;4900700;29;20063;-78
2022/08/23 06:46:46;;;;;;;10.35;4.18;;;;;;;24.56;45.74;101559.25;4900028;29;20104;-78
2022/08/23 06:49:12;;;;;;;10.60;4.43;;;;;;;24.53;45.86;101557.56;4902233;29;20056;-78
2022/08/23 06:51:58;;;;;;;11.88;4.47;;;;;;;24.57;45.79;101558.34;4883578;29;20182;-78
2022/08/23 06:56:52;;;;;;;13.10;4.07;;;;;;;24.67;45.61;101546.66;4900587;29;20251;-77
2022/08/23 06:59:19;;;;;;;10.55;4.30;;;;;;;24.70;45.52;101553.63;4886011;29;20143;-78
2022/08/23 07:01:49;;;;;;;11.85;4.38;;;;;;;24.71;45.85;101548.28;4899534;29;20076;-78
2022/08/23 07:04:20;;;;;;;10.15;4.03;;;;;;;24.73;46.13;101553.50;4890098;29;20036;-78
2022/08/23 07:06:46;;;;;;;8.00;3.75;;;;;;;24.77;46.16;101553.38;4904381;29;20057;-77
2022/08/23 07:09:13;;;;;;;6.47;3.60;;;;;;;24.76;46.23;101559.56;4905023;29;20505;-77
2022/08/23 07:11:38;;;;;;;7.80;3.78;;;;;;;24.71;47.00;101557.97;4886960;29;20057;-78
2022/08/23 07:14:10;;;;;;;9.15;3.60;;;;;;;24.73;47.01;101559.63;4887681;29;20096;-78
2022/08/23 07:16:48;;;;;;;9.48;3.80;;;;;;;24.73;47.17;101562.28;4900714;29;20464;-77
2022/08/23 07:19:15;;;;;;;10.82;4.00;;;;;;;24.69;47.96;101568.53;4901646;29;20144;-77
2022/08/23 07:21:44;;;;;;;9.32;4.00;;;;;;;24.58;48.36;101574.06;4802738;29;1362278;-77
2022/08/23 07:24:10;;;;;;;7.47;3.58;;;;;;;24.51;48.77;101571.66;4900153;29;20076;-77
2022/08/23 07:26:38;;;;;;;9.07;3.70;;;;;;;24.47;48.67;101573.47;4897390;29;20045;-78
2022/08/23 07:29:05;;;;;;;11.55;3.65;;;;;;;24.47;48.99;101580.50;4865520;29;20140;-77
2022/08/23 07:31:32;;;;;;;7.40;3.13;;;;;;;24.41;49.20;101577.16;4885063;29;20054;-78
2022/08/23 07:34:02;;;;;;;9.70;3.65;;;;;;;24.40;49.72;101582.44;4902076;29;20052;-78
2022/08/23 07:36:30;;;;;;;7.90;3.45;;;;;;;24.43;49.51;101580.63;4902350;29;20456;-78
2022/08/23 07:38:55;;;;;;;9.13;3.67;;;;;;;24.38;49.93;101579.84;4880220;29;20066;-78
2022/08/23 07:41:24;;;;;;;9.18;3.33;;;;;;;24.46;49.78;101582.28;4889775;29;20052;-77
2022/08/23 07:43:49;;;;;;;7.22;2.70;;;;;;;24.49;49.97;101578.75;4886385;29;20061;-78
2022/08/23 07:46:15;;;;;;;7.32;2.90;;;;;;;24.51;49.89;101585.69;4874130;29;20045;-78
2022/08/23 07:48:40;;;;;;;8.38;2.67;;;;;;;24.61;49.43;101586.31;4884969;29;20057;-77
2022/08/23 07:51:09;;;;;;;7.88;2.55;;;;;;;24.69;49.36;101584.31;4888887;29;20059;-78
2022/08/23 07:53:34;;;;;;;5.65;2.40;;;;;;;24.72;49.47;101580.75;4902366;29;20057;-77
2022/08/23 07:56:04;;;;;;;5.75;2.60;;;;;;;24.77;49.24;101582.34;4887444;29;20045;-78
2022/08/23 07:58:30;;;;;;;6.65;2.40;;;;;;;24.72;49.83;101581.63;4885133;29;20151;-77
2022/08/23 08:00:56;;;;;;;5.32;2.50;;;;;;;24.71;49.91;101586.91;4848328;29;20062;-77
2022/08/23 08:03:21;;;;;;;6.80;2.28;;;;;;;24.70;50.32;101582.56;4853523;29;20051;-78
2022/08/23 08:05:46;;;;;;;7.18;2.53;;;;;;;24.72;50.30;101586.88;4859749;29;20064;-77
2022/08/23 08:08:12;;;;;;;5.85;2.10;;;;;;;24.79;49.70;101582.31;4885051;29;20125;-77
2022/08/23 08:10:40;;;;;;;4.53;2.13;;;;;;;24.82;49.96;101587.47;4845336;29;20049;-78
2022/08/23 08:13:06;;;;;;;5.78;2.00;;;;;;;24.82;50.31;101595.38;4887546;29;20057;-78
2022/08/23 08:15:33;;;;;;;7.85;2.30;;;;;;;24.80;50.58;101592.81;4899785;29;20040;-77
2022/08/23 08:17:58;;;;;;;8.77;2.28;;;;;;;24.86;50.09;101604.91;4900829;29;20052;-78
2022/08/23 08:20:25;;;;;;;7.70;2.10;;;;;;;24.82;50.63;101601.53;4903348;29;20579;-77
2022/08/23 08:22:51;;;;;;;6.22;2.40;;;;;;;24.84;50.82;101606.72;4894989;29;20140;-78
2022/08/23 08:25:16;;;;;;;5.68;1.90;;;;;;;24.83;51.15;101605.88;4880805;29;20136;-77
2022/08/23 08:27:42;;;;;;;5.50;1.70;;;;;;;24.83;51.00;101615.53;4879269;29;20115;-77
2022/08/23 08:30:09;;;;;;;8.95;2.28;;;;;;;24.83;51.11;101610.28;4893740;29;20080;-78
2022/08/23 08:32:35;;;;;;;5.70;2.03;;;;;;;24.76;51.43;101612.22;4882179;29;20488;-77
2022/08/23 08:35:01;;;;;;;5.32;1.83;;;;;;;24.73;51.14;101616.69;4875533;29;20064;-77
2022/08/23 08:37:27;;;;;;;4.50;1.83;;;;;;;24.73;51.28;101619.31;4853552;29;20037;-79
2022/08/23 08:39:53;;;;;;;6.20;2.42;;;;;;;24.68;51.42;101622.06;4866326;29;20052;-77
2022/08/23 08:42:22;;;;;;;5.90;1.80;;;;;;;24.66;51.48;101620.41;4867585;29;20051;-77
2022/08/23 08:44:59;;;;;;;5.68;1.90;;;;;;;24.66;51.58;101628.28;4895854;29;20112;-77
2022/08/23 09:00:17;;;;;;;5.45;1.77;;;;;;;24.65;51.43;101624.81;5092925;23;20043;-85
2022/08/23 09:02:44;;;;;;;6.47;2.03;;;;;;;24.72;51.29;101629.00;4918905;29;20032;-85
2022/08/23 09:05:20;;;;;;;7.60;1.95;;;;;;;24.68;51.76;101622.06;4921129;29;20020;-84
2022/08/23 09:25:53;;;;;;;4.25;1.45;;;;;;;24.74;51.59;101627.19;5878843;23;20015;-86
2022/08/23 09:28:22;;;;;;;5.60;1.88;;;;;;;24.72;51.53;101623.72;4920721;29;20515;-87
2022/08/23 09:30:52;;;;;;;7.47;1.98;;;;;;;24.75;51.38;101626.25;4919513;29;20052;-85
2022/08/23 09:36:05;;;;;;;;;;;;;;;24.78;51.33;101636.72;4936110;29;20058;-85
2022/08/23 09:38:32;;;;;;;5.70;1.60;;;;;;;24.76;51.24;101633.28;4919445;29;19950;-83
2022/08/23 09:40:57;;;;;;;4.60;1.90;;;;;;;24.73;51.37;101640.38;4921021;29;20038;-85
2022/08/23 09:45:51;;;;;;;4.78;1.90;;;;;;;24.70;51.75;101622.91;5115505;23;20111;-85
2022/08/23 09:50:57;;;;;;;5.32;1.88;;;;;;;24.77;51.51;101619.19;4934580;29;20040;-85
2022/08/23 09:53:26;;;;;;;3.85;1.45;;;;;;;24.76;51.64;101629.75;4921121;29;20076;-85
2022/08/23 09:55:56;;;;;;;4.75;1.58;;;;;;;24.74;51.89;101626.31;4935686;29;20058;-85
2022/08/23 10:01:13;;;;;;;4.97;1.70;;;;;;;24.72;51.87;101625.50;4935171;29;20934;-84
2022/08/23 10:03:41;;;;;;;3.78;1.55;;;;;;;24.73;51.57;101619.31;4919469;29;20111;-86
2022/08/23 10:30:01;;;;;;;3.55;1.50;;;;;;;24.78;51.97;101623.56;4928790;29;20092;-80
2022/08/23 10:32:26;;;;;;;2.63;1.40;;;;;;;24.77;51.76;101624.44;4912410;29;20048;-79
2022/08/23 10:35:10;;;;;;;4.40;1.50;;;;;;;24.77;51.71;101621.81;4903998;29;20633;-77
2022/08/23 10:37:36;;;;;;;2.80;1.40;;;;;;;24.77;51.76;101619.19;4914723;29;20053;-86
2022/08/23 10:43:19;;;;;;;5.55;1.35;;;;;;;24.76;52.06;101619.22;4925229;29;20111;-86
2022/08/23 10:45:45;;;;;;;;;;;;;;;24.76;51.81;101616.59;4918286;29;20092;-85
2022/08/23 10:56:03;;;;;;;2.65;1.40;;;;;;;24.78;51.84;101623.56;5215105;23;20052;-87
2022/08/23 10:58:44;;;;;;;3.40;1.50;;;;;;;24.80;51.84;101619.13;4909423;29;20052;-77
2022/08/23 11:01:13;;;;;;;3.10;1.50;;;;;;;24.79;51.67;101611.25;4903962;29;20055;-78
2022/08/23 11:03:58;;;;;;;2.97;1.25;;;;;;;24.77;51.65;101613.91;4913954;29;20059;-86
2022/08/23 11:09:01;;;;;;;6.60;1.48;;;;;;;24.76;52.01;101616.59;4933041;29;20060;-87
2022/08/23 11:11:50;;;;;;;3.00;1.60;;;;;;;24.79;51.49;101620.00;4933260;29;20036;-82
2022/08/23 11:16:58;;;;;;;2.80;1.52;;;;;;;24.81;51.31;101612.94;4936509;29;20040;-86
2022/08/23 11:22:12;;;;;;;4.03;1.70;;;;;;;24.81;51.59;101612.94;4929239;29;20737;-78
2022/08/23 11:24:51;;;;;;;2.72;1.30;;;;;;;24.84;51.51;101619.88;4919192;29;20103;-77
2022/08/23 11:29:51;;;;;;;4.78;1.48;;;;;;;24.84;51.39;101623.38;4916948;29;20090;-77
2022/08/23 11:35:11;;;;;;;4.60;1.50;;;;;;;24.86;51.52;101619.84;4920699;29;20091;-77
2022/08/23 11:37:58;;;;;;;2.92;1.27;;;;;;;24.86;51.09;101633.88;4905421;29;20055;-77
2022/08/23 11:42:51;;;;;;;3.15;1.55;;;;;;;24.86;51.20;101633.88;4922068;29;20060;-77
2022/08/23 11:51:02;;;;;;;3.03;1.42;;;;;;;24.84;51.09;101643.56;4915160;29;21178;-77
2022/08/23 11:53:48;;;;;;;4.93;1.63;;;;;;;24.83;51.07;101647.97;4924194;29;20052;-78
2022/08/23 11:56:23;;;;;;;3.53;1.40;;;;;;;24.84;50.88;101651.47;4906258;29;20052;-77
2022/08/23 11:59:17;;;;;;;2.58;1.17;;;;;;;24.84;51.06;101652.31;4921944;29;20511;-78
2022/08/23 12:01:44;;;;;;;3.65;1.38;;;;;;;24.86;50.77;101651.44;4905099;29;20052;-77
2022/08/23 12:04:25;;;;;;;2.38;1.27;;;;;;;24.87;50.63;101653.16;4908726;29;20055;-77
2022/08/23 12:06:56;;;;;;;4.88;1.50;;;;;;;24.87;50.73;101656.66;4907389;29;20077;-76
2022/08/23 12:09:22;;;;;;;2.15;1.20;;;;;;;24.88;50.88;101652.25;4908628;29;20518;-77
2022/08/23 12:11:54;;;;;;;3.20;1.40;;;;;;;24.89;50.59;101648.72;4905285;29;20056;-78
2022/08/23 12:16:51;;;;;;;3.83;1.40;;;;;;;24.89;51.03;101654.84;4926509;29;20040;-77
2022/08/23 12:21:53;;;;;;;2.28;1.25;;;;;;;24.89;50.84;101659.25;4925758;29;20056;-78
2022/08/23 12:24:27;;;;;;;2.17;1.35;;;;;;;24.87;50.99;101651.41;4861484;29;1255406;-79
2022/08/23 12:27:16;;;;;;;2.50;1.10;;;;;;;24.88;50.99;101654.91;4925509;29;20052;-77
2022/08/23 12:29:55;;;;;;;2.00;1.20;;;;;;;24.88;50.91;101653.13;4907922;29;20086;-78
2022/08/23 12:35:17;;;;;;;2.22;1.05;;;;;;;24.89;50.71;101653.97;4920161;29;20044;-78
2022/08/23 12:37:50;;;;;;;1.98;1.10;;;;;;;24.90;50.65;101650.44;4900212;29;20068;-77
2022/08/23 12:43:03;;;;;;;1.70;1.13;;;;;;;24.90;50.84;101650.44;4920261;29;20074;-78
2022/08/23 12:45:48;;;;;;;1.73;1.00;;;;;;;24.90;50.76;101658.34;4899967;29;20447;-78
2022/08/23 12:48:15;;;;;;;2.30;1.17;;;;;;;24.91;50.75;101657.44;4897912;29;20044;-77
2022/08/23 12:50:51;;;;;;;1.75;1.10;;;;;;;24.90;50.77;101661.84;4914724;29;20056;-77
2022/08/23 12:56:03;;;;;;;1.65;1.10;;;;;;;24.92;50.73;101660.03;4906755;29;20059;-78
2022/08/23 12:58:31;;;;;;;1.90;1.00;;;;;;;24.92;50.63;101654.75;4899317;29;20043;-78
2022/08/23 13:01:00;;;;;;;1.77;1.00;;;;;;;24.93;50.74;101658.25;4896359;29;20063;-77
2022/08/23 13:05:59;;;;;;;2.90;1.20;;;;;;;24.94;50.74;101646.84;4897454;29;20492;-78
2022/08/23 13:10:52;;;;;;;2.92;1.20;;;;;;;24.95;50.50;101646.75;4899554;29;20052;-77
2022/08/23 13:13:23;;;;;;;1.40;1.00;;;;;;;24.96;50.50;101645.03;4899786;29;20052;-77
2022/08/23 13:15:52;;;;;;;1.88;1.20;;;;;;;24.96;50.79;101639.75;4898118;29;20064;-77
2022/08/23 13:21:22;;;;;;;2.47;1.23;;;;;;;24.98;50.56;101637.94;4911640;29;21502;-78
2022/08/23 13:23:50;;;;;;;3.55;1.10;;;;;;;24.99;50.80;101629.13;4904111;29;20056;-77
2022/08/23 13:29:16;;;;;;;2.10;1.08;;;;;;;25.00;50.30;101631.72;4922010;29;21185;-77
2022/08/23 13:32:00;;;;;;;2.00;1.15;;;;;;;25.02;50.38;101626.38;4903757;29;20048;-78
2022/08/23 13:36:51;;;;;;;2.42;1.30;;;;;;;25.03;50.21;101623.72;4922328;29;20052;-78
2022/08/23 13:39:17;;;;;;;2.25;1.25;;;;;;;25.03;50.28;101626.34;4875992;29;20586;-78
2022/08/23 13:41:48;;;;;;;1.92;1.10;;;;;;;25.04;50.19;101621.94;4881771;29;20051;-78
2022/08/23 13:44:17;;;;;;;4.03;1.30;;;;;;;25.04;50.15;101628.09;4906676;29;20067;-77
2022/08/23 13:46:46;;;;;;;2.28;1.20;;;;;;;25.07;50.47;101626.28;4903603;29;20139;-78
2022/08/23 13:51:57;;;;;;;2.20;1.17;;;;;;;25.07;49.99;101624.50;4916390;29;20626;-77
2022/08/23 13:56:57;;;;;;;2.47;1.02;;;;;;;25.07;50.08;101629.78;4899416;29;20130;-79
2022/08/23 14:01:52;;;;;;;1.90;1.10;;;;;;;25.10;49.77;101639.34;4909751;29;20066;-78
2022/08/23 14:04:17;;;;;;;2.63;1.25;;;;;;;25.10;50.01;101640.22;4886557;29;20119;-78
2022/08/23 14:06:42;;;;;;;2.00;1.13;;;;;;;25.11;49.88;101646.34;4871597;29;20140;-78
2022/08/23 14:09:08;;;;;;;2.60;1.10;;;;;;;25.12;49.98;101643.66;4872173;29;20515;-78
2022/08/23 14:11:34;;;;;;;1.60;1.17;;;;;;;25.13;50.20;101644.53;4885566;29;20048;-77
2022/08/23 14:14:00;;;;;;;2.20;1.10;;;;;;;25.13;50.14;101647.16;4886310;29;20048;-78
2022/08/23 14:18:51;;;;;;;3.10;1.10;;;;;;;25.15;50.01;101650.59;4908109;29;20149;-76
2022/08/23 14:21:16;;;;;;;1.63;1.10;;;;;;;25.15;50.32;101650.59;4901373;29;20873;-78
2022/08/23 14:23:42;;;;;;;2.15;1.00;;;;;;;25.16;49.97;101661.13;4882086;29;20059;-77
2022/08/23 14:26:13;;;;;;;2.17;1.20;;;;;;;25.16;50.13;101649.72;4871274;29;20455;-78